createdAt,value
2022-08-26T00:01:44.922Z,15.30
2022-08-26T00:04:12.623Z,14.90
2022-08-26T00:06:42.726Z,9.95
2022-08-26T00:09:16.211Z,14.35
2022-08-26T00:11:44.655Z,12.82
2022-08-26T00:14:13.883Z,8.52
2022-08-26T00:16:47.555Z,13.05
2022-08-26T00:19:18.302Z,8.57
2022-08-26T00:21:48.779Z,12.07
2022-08-26T00:24:18.020Z,12.82
2022-08-26T00:26:45.065Z,11.23
2022-08-26T00:29:12.713Z,13.07
2022-08-26T00:31:40.782Z,10.63
2022-08-26T00:34:09.321Z,14.50
2022-08-26T00:36:37.129Z,15.70
2022-08-26T00:39:06.987Z,19.55
2022-08-26T00:41:35.015Z,15.18
2022-08-26T00:44:02.024Z,11.00
2022-08-26T00:46:31.815Z,13.43
2022-08-26T00:49:18.022Z,11.77
2022-08-26T00:51:50.737Z,14.45
2022-08-26T00:54:19.446Z,12.20
2022-08-26T00:57:00.164Z,11.57
2022-08-26T00:59:29.309Z,10.88
2022-08-26T01:02:02.615Z,18.58
2022-08-26T01:04:31.626Z,11.18
2022-08-26T01:06:59.945Z,10.60
2022-08-26T01:09:27.489Z,10.45
2022-08-26T01:11:56.949Z,13.63
2022-08-26T01:14:26.504Z,10.35
2022-08-26T01:16:53.424Z,13.40
2022-08-26T01:19:43.573Z,13.55
2022-08-26T01:22:34.275Z,13.07
2022-08-26T01:25:03.601Z,14.15
2022-08-26T01:27:32.965Z,11.23
2022-08-26T01:30:02.101Z,9.95
2022-08-26T01:32:31.661Z,9.40
2022-08-26T01:34:59.692Z,10.98
2022-08-26T01:37:32.621Z,11.98
2022-08-26T01:39:59.538Z,10.52
2022-08-26T01:42:27.448Z,10.52
2022-08-26T01:45:06.972Z,12.88
2022-08-26T01:47:36.615Z,12.50
2022-08-26T01:50:11.688Z,15.68
2022-08-26T01:52:45.059Z,12.87
2022-08-26T01:55:32.302Z,10.45
2022-08-26T01:58:04.786Z,14.93
2022-08-26T02:00:34.232Z,10.18
2022-08-26T02:03:17.806Z,10.15
2022-08-26T02:06:00.156Z,11.23
2022-08-26T02:08:46.017Z,9.80
2022-08-26T02:11:13.840Z,12.30
2022-08-26T02:13:48.246Z,11.20
2022-08-26T02:16:18.413Z,13.00
2022-08-26T02:18:46.933Z,13.13
2022-08-26T02:21:13.995Z,13.25
2022-08-26T02:23:41.652Z,9.30
2022-08-26T02:26:19.334Z,10.32
2022-08-26T02:29:36.412Z,15.35
2022-08-26T02:32:08.010Z,13.27
2022-08-26T02:34:35.036Z,13.57
2022-08-26T02:37:06.506Z,11.50
2022-08-26T02:39:36.928Z,13.82
2022-08-26T02:42:05.333Z,12.55
2022-08-26T02:44:33.479Z,10.98
2022-08-26T02:47:00.759Z,15.02
2022-08-26T02:49:28.345Z,14.75
2022-08-26T02:51:55.186Z,13.95
2022-08-26T02:54:22.640Z,11.70
2022-08-26T02:56:49.443Z,17.77
2022-08-26T02:59:16.328Z,11.82
2022-08-26T03:01:45.318Z,9.20
2022-08-26T03:04:13.015Z,11.35
2022-08-26T03:06:41.635Z,12.00
2022-08-26T03:09:09.692Z,13.65
2022-08-26T03:11:37.808Z,11.93
2022-08-26T03:14:05.126Z,10.93
2022-08-26T03:16:34.723Z,12.38
2022-08-26T03:19:03.459Z,9.85
2022-08-26T03:21:31.385Z,15.52
2022-08-26T03:23:58.922Z,15.65
2022-08-26T03:26:28.069Z,11.23
2022-08-26T03:29:14.282Z,11.45
2022-08-26T03:31:41.382Z,9.50
2022-08-26T03:34:09.664Z,12.13
2022-08-26T03:36:38.808Z,10.95
2022-08-26T03:39:07.826Z,13.20
2022-08-26T03:41:36.635Z,11.68
2022-08-26T03:44:05.936Z,10.55
2022-08-26T03:46:33.768Z,10.70
2022-08-26T03:49:02.458Z,19.98
2022-08-26T03:51:29.690Z,13.52
2022-08-26T03:53:58.957Z,15.10
2022-08-26T03:56:26.224Z,15.65
2022-08-26T03:58:53.780Z,14.18
2022-08-26T04:01:21.290Z,10.73
2022-08-26T04:04:00.962Z,16.58
2022-08-26T04:06:34.634Z,16.85
2022-08-26T04:09:05.363Z,15.95
2022-08-26T04:11:35.611Z,11.85
2022-08-26T04:14:09.831Z,12.38
2022-08-26T04:16:36.947Z,10.38
2022-08-26T04:19:04.089Z,11.50
2022-08-26T04:21:31.438Z,11.43
2022-08-26T04:23:58.410Z,12.90
2022-08-26T04:26:25.742Z,13.40
2022-08-26T04:28:54.894Z,12.77
2022-08-26T04:31:22.250Z,13.90
2022-08-26T04:33:50.209Z,12.55
2022-08-26T04:36:19.949Z,16.73
2022-08-26T04:38:47.723Z,15.38
2022-08-26T04:41:14.977Z,11.27
2022-08-26T04:43:44.493Z,13.55
2022-08-26T04:46:12.925Z,11.50
2022-08-26T04:48:41.146Z,10.43
2022-08-26T04:51:09.648Z,11.23
2022-08-26T04:53:37.357Z,12.45
2022-08-26T04:56:04.784Z,13.43
2022-08-26T04:58:32.333Z,13.52
2022-08-26T05:00:59.849Z,10.73
2022-08-26T05:03:30.306Z,15.95
2022-08-26T05:05:58.705Z,13.70
2022-08-26T05:08:26.058Z,14.40
2022-08-26T05:10:56.533Z,9.77
2022-08-26T05:13:26.678Z,9.48
2022-08-26T05:15:54.464Z,9.35
2022-08-26T05:18:24.629Z,12.60
2022-08-26T05:20:54.808Z,12.57
2022-08-26T05:23:23.915Z,9.63
2022-08-26T05:25:57.086Z,12.10
2022-08-26T05:30:53.422Z,11.35
2022-08-26T05:33:20.442Z,14.10
2022-08-26T05:35:47.653Z,11.38
2022-08-26T05:38:17.792Z,12.52
2022-08-26T05:40:47.384Z,11.02
2022-08-26T05:43:14.592Z,11.80
2022-08-26T05:45:46.233Z,16.50
2022-08-26T05:48:15.367Z,14.50
2022-08-26T05:50:49.625Z,16.33
2022-08-26T05:53:19.294Z,12.18
2022-08-26T05:55:50.182Z,13.05
2022-08-26T05:58:20.318Z,10.52
2022-08-26T06:00:57.765Z,11.20
2022-08-26T06:03:25.017Z,12.48
2022-08-26T06:05:51.823Z,16.23
2022-08-26T06:08:21.141Z,12.35
2022-08-26T06:10:51.025Z,12.38
2022-08-26T06:13:21.521Z,14.20
2022-08-26T06:15:50.271Z,12.88
2022-08-26T06:18:20.886Z,10.15
2022-08-26T06:20:49.555Z,14.98
2022-08-26T06:23:45.595Z,15.50
2022-08-26T06:26:14.781Z,9.93
2022-08-26T06:28:43.547Z,14.90
2022-08-26T06:31:13.253Z,11.40
2022-08-26T06:33:40.127Z,16.08
2022-08-26T06:36:07.274Z,11.75
2022-08-26T06:38:34.893Z,12.85
2022-08-26T06:41:03.366Z,8.68
2022-08-26T06:43:30.150Z,15.88
2022-08-26T06:46:06.415Z,10.13
2022-08-26T06:48:34.653Z,14.38
2022-08-26T06:51:07.057Z,17.40
2022-08-26T06:53:34.026Z,10.32
2022-08-26T06:56:06.548Z,12.23
2022-08-26T06:58:34.685Z,15.02
2022-08-26T07:01:09.119Z,10.82
2022-08-26T07:03:39.465Z,12.48
2022-08-26T07:06:07.052Z,12.50
2022-08-26T07:08:34.337Z,13.68
2022-08-26T07:11:08.974Z,13.35
2022-08-26T07:13:37.582Z,16.15
2022-08-26T07:16:06.692Z,15.43
2022-08-26T07:18:36.341Z,18.77
2022-08-26T07:21:05.309Z,9.55
2022-08-26T07:23:33.225Z,14.68
2022-08-26T07:26:04.063Z,17.45
2022-08-26T07:28:31.473Z,11.25
2022-08-26T07:30:58.328Z,13.63
2022-08-26T07:33:25.706Z,14.10
2022-08-26T07:35:52.535Z,17.10
2022-08-26T07:38:19.335Z,19.15
2022-08-26T07:40:46.216Z,15.52
2022-08-26T07:43:13.076Z,12.45
2022-08-26T07:45:40.039Z,14.38
2022-08-26T07:48:06.869Z,11.38
2022-08-26T07:50:50.032Z,19.48
2022-08-26T07:53:18.188Z,19.75
2022-08-26T07:55:46.654Z,10.70
2022-08-26T07:58:14.082Z,22.27
2022-08-26T08:00:41.518Z,15.18
2022-08-26T08:03:08.970Z,15.05
2022-08-26T08:05:36.869Z,21.80
2022-08-26T08:08:27.304Z,16.15
2022-08-26T08:10:55.809Z,14.70
2022-08-26T08:13:24.196Z,10.18
2022-08-26T08:15:51.506Z,14.98
2022-08-26T08:18:20.541Z,15.77
2022-08-26T08:21:04.766Z,14.52
2022-08-26T08:23:35.500Z,18.98
2022-08-26T08:26:04.386Z,17.63
2022-08-26T08:28:31.590Z,15.45
2022-08-26T08:30:59.164Z,19.00
2022-08-26T08:33:26.567Z,15.63
2022-08-26T08:35:53.548Z,12.73
2022-08-26T08:38:20.325Z,17.20
2022-08-26T08:40:47.361Z,14.35
2022-08-26T08:43:28.346Z,13.52
2022-08-26T08:46:05.668Z,20.85
2022-08-26T08:48:38.874Z,9.35
2022-08-26T08:51:27.604Z,16.63
2022-08-26T08:53:56.091Z,11.75
2022-08-26T08:56:25.966Z,14.48
2022-08-26T08:59:01.527Z,15.07
2022-08-26T09:02:04.806Z,16.00
2022-08-26T09:05:04.620Z,9.95
2022-08-26T09:07:36.504Z,8.43
2022-08-26T09:10:21.679Z,13.05
2022-08-26T09:12:51.057Z,12.25
2022-08-26T09:15:36.656Z,6.22
2022-08-26T09:18:25.231Z,15.55
2022-08-26T09:20:56.796Z,12.75
2022-08-26T09:23:24.018Z,9.90
2022-08-26T09:25:55.839Z,9.10
2022-08-26T09:28:25.576Z,12.80
2022-08-26T09:31:10.647Z,10.40
2022-08-26T09:33:39.316Z,15.20
2022-08-26T09:36:26.298Z,9.95
2022-08-26T09:38:54.203Z,15.60
2022-08-26T09:41:25.948Z,10.00
2022-08-26T09:44:15.758Z,10.75
2022-08-26T09:46:56.871Z,9.65
2022-08-26T09:49:35.727Z,13.25
2022-08-26T09:52:18.918Z,13.73
2022-08-26T09:54:57.266Z,5.82
2022-08-26T09:57:28.414Z,6.68
2022-08-26T09:59:55.893Z,4.18
2022-08-26T10:02:32.988Z,17.10
2022-08-26T10:05:04.519Z,6.45
2022-08-26T10:07:50.029Z,6.75
2022-08-26T10:10:33.472Z,12.02
2022-08-26T10:13:09.824Z,8.20
2022-08-26T10:15:55.685Z,4.55
2022-08-26T10:18:35.527Z,7.95
2022-08-26T10:21:09.094Z,9.73
2022-08-26T10:23:43.356Z,5.50
2022-08-26T10:26:13.791Z,9.82
2022-08-26T10:28:55.259Z,4.65
2022-08-26T10:31:46.780Z,5.30
2022-08-26T10:34:17.155Z,2.75
2022-08-26T10:37:14.592Z,3.30
2022-08-26T10:40:07.496Z,7.53
2022-08-26T10:42:40.375Z,7.82
2022-08-26T10:45:15.239Z,10.40
2022-08-26T10:47:46.117Z,5.72
2022-08-26T10:50:13.042Z,6.68
2022-08-26T10:53:08.760Z,3.85
2022-08-26T10:58:44.565Z,4.38
2022-08-26T11:01:43.363Z,4.43
2022-08-26T11:04:35.429Z,5.93
2022-08-26T11:07:32.048Z,6.32
2022-08-26T11:10:06.827Z,6.63
2022-08-26T11:12:37.356Z,8.27
2022-08-26T11:15:13.605Z,7.00
2022-08-26T11:17:46.912Z,9.18
2022-08-26T11:20:23.812Z,6.57
2022-08-26T11:22:52.836Z,3.22
2022-08-26T11:25:23.564Z,4.78
2022-08-26T11:27:56.977Z,5.03
2022-08-26T11:30:25.073Z,7.97
2022-08-26T11:32:57.267Z,5.90
2022-08-26T11:35:24.534Z,5.82
2022-08-26T11:37:57.281Z,7.18
2022-08-26T11:40:33.887Z,7.93
2022-08-26T11:43:02.784Z,4.85
2022-08-26T11:45:38.720Z,10.40
2022-08-26T11:48:19.912Z,6.07
2022-08-26T11:51:11.349Z,6.28
2022-08-26T11:53:41.451Z,8.55
2022-08-26T11:56:12.331Z,11.95
2022-08-26T11:58:44.747Z,9.80
2022-08-26T12:01:21.327Z,5.90
2022-08-26T12:03:51.112Z,4.95
2022-08-26T12:06:30.951Z,8.45
2022-08-26T12:09:00.586Z,9.77
2022-08-26T12:11:33.731Z,6.70
2022-08-26T12:14:07.579Z,6.10
2022-08-26T12:16:40.007Z,6.82
2022-08-26T12:19:29.429Z,4.43
2022-08-26T12:22:07.559Z,11.95
2022-08-26T12:24:35.189Z,9.13
2022-08-26T12:27:22.002Z,6.57
2022-08-26T12:30:14.066Z,4.18
2022-08-26T12:33:22.288Z,7.20
2022-08-26T12:35:54.358Z,5.88
2022-08-26T12:38:22.454Z,11.85
2022-08-26T12:40:50.432Z,7.55
2022-08-26T12:43:41.410Z,6.05
2022-08-26T12:46:11.870Z,5.82
2022-08-26T12:48:42.753Z,4.65
2022-08-26T12:51:21.784Z,5.78
2022-08-26T12:53:48.877Z,7.45
2022-08-26T12:56:29.440Z,6.68
2022-08-26T12:59:19.895Z,6.30
2022-08-26T13:01:47.157Z,8.68
2022-08-26T13:04:37.688Z,5.53
2022-08-26T13:07:25.937Z,6.30
2022-08-26T13:09:57.834Z,4.47
2022-08-26T13:12:26.364Z,5.72
2022-08-26T13:14:54.104Z,6.82
2022-08-26T13:17:21.262Z,4.43
2022-08-26T13:19:48.425Z,3.72
2022-08-26T13:22:19.165Z,5.60
2022-08-26T13:24:46.455Z,4.40
2022-08-26T13:27:15.161Z,6.35
2022-08-26T13:29:42.093Z,6.72
2022-08-26T13:32:09.682Z,6.20
2022-08-26T13:34:38.507Z,5.28
2022-08-26T13:37:06.319Z,4.18
2022-08-26T13:39:33.463Z,9.10
2022-08-26T13:42:00.533Z,6.38
2022-08-26T13:44:27.730Z,4.25
2022-08-26T13:46:54.702Z,7.85
2022-08-26T13:49:22.321Z,7.63
2022-08-26T13:51:49.222Z,9.93
2022-08-26T13:54:16.165Z,5.97
2022-08-26T13:56:43.033Z,7.82
2022-08-26T13:59:10.513Z,5.95
2022-08-26T14:01:38.198Z,6.60
2022-08-26T14:04:05.145Z,9.68
2022-08-26T14:06:32.017Z,6.10
2022-08-26T14:08:59.024Z,8.38
2022-08-26T14:11:26.131Z,7.70
2022-08-26T14:13:53.057Z,5.43
2022-08-26T14:16:34.841Z,3.55
2022-08-26T14:19:04.616Z,7.55
2022-08-26T14:21:33.946Z,4.65
2022-08-26T14:24:01.208Z,5.82
2022-08-26T14:26:29.893Z,4.85
2022-08-26T14:29:00.971Z,4.70
2022-08-26T14:31:29.676Z,5.80
2022-08-26T14:34:04.153Z,13.40
2022-08-26T14:36:34.082Z,1.63
2022-08-26T14:39:15.263Z,5.65
2022-08-26T14:41:53.733Z,6.15
2022-08-26T14:44:24.950Z,5.65
2022-08-26T14:46:52.916Z,3.85
2022-08-26T14:49:21.803Z,5.53
2022-08-26T14:51:48.913Z,4.55
2022-08-26T14:54:17.433Z,7.60
2022-08-26T14:56:51.352Z,8.88
2022-08-26T14:59:39.636Z,4.97
2022-08-26T15:02:08.675Z,3.75
2022-08-26T15:04:35.587Z,4.93
2022-08-26T15:07:03.519Z,7.70
2022-08-26T15:09:32.834Z,4.25
2022-08-26T15:11:59.689Z,8.70
2022-08-26T15:14:28.609Z,12.80
2022-08-26T15:16:58.114Z,4.13
2022-08-26T15:19:27.062Z,3.28
2022-08-26T15:21:54.059Z,7.78
2022-08-26T15:24:24.303Z,10.57
2022-08-26T15:26:51.974Z,3.75
2022-08-26T15:29:18.900Z,6.93
2022-08-26T15:31:47.615Z,12.85
2022-08-26T15:34:16.994Z,8.93
2022-08-26T15:36:46.363Z,5.53
2022-08-26T15:39:14.934Z,5.97
2022-08-26T15:41:41.942Z,10.88
2022-08-26T15:44:10.335Z,13.32
2022-08-26T15:46:37.719Z,3.47
2022-08-26T15:49:06.259Z,5.93
2022-08-26T15:51:45.629Z,7.40
2022-08-26T15:54:16.031Z,2.65
2022-08-26T15:56:43.584Z,7.00
2022-08-26T15:59:11.759Z,6.28
2022-08-26T16:01:39.506Z,8.85
2022-08-26T16:04:06.909Z,4.45
2022-08-26T16:06:35.737Z,4.70
2022-08-26T16:09:03.697Z,8.13
2022-08-26T16:11:31.260Z,6.97
2022-08-26T16:13:58.402Z,7.57
2022-08-26T16:16:25.297Z,6.88
2022-08-26T16:18:52.725Z,5.78
2022-08-26T16:21:24.652Z,7.45
2022-08-26T16:23:51.907Z,7.03
2022-08-26T16:26:21.633Z,5.60
2022-08-26T16:28:48.735Z,5.53
2022-08-26T16:31:16.419Z,8.63
2022-08-26T16:33:43.662Z,12.07
2022-08-26T16:36:11.145Z,11.65
2022-08-26T16:38:38.979Z,4.45
2022-08-26T16:41:06.044Z,3.83
2022-08-26T16:43:33.021Z,7.40
2022-08-26T16:45:59.911Z,8.30
2022-08-26T16:48:27.913Z,10.00
2022-08-26T16:50:55.721Z,8.60
2022-08-26T16:53:23.331Z,9.45
2022-08-26T16:55:50.858Z,9.70
2022-08-26T16:58:18.731Z,9.57
2022-08-26T17:00:46.182Z,12.50
2022-08-26T17:03:13.183Z,7.70
2022-08-26T17:05:40.369Z,14.25
2022-08-26T17:08:07.876Z,9.80
2022-08-26T17:10:35.194Z,6.10
2022-08-26T17:13:02.222Z,9.80
2022-08-26T17:15:29.202Z,9.38
2022-08-26T17:17:56.862Z,9.23
2022-08-26T17:20:24.717Z,15.10
2022-08-26T17:22:53.449Z,10.02
2022-08-26T17:25:25.389Z,10.60
2022-08-26T17:27:52.493Z,10.30
2022-08-26T17:30:20.143Z,10.98
2022-08-26T17:32:47.427Z,7.53
2022-08-26T17:35:15.550Z,8.10
2022-08-26T17:37:43.303Z,10.40
2022-08-26T17:40:15.484Z,12.27
2022-08-26T17:42:42.442Z,10.63
2022-08-26T17:45:10.705Z,8.80
2022-08-26T17:47:38.381Z,10.40
2022-08-26T17:50:09.153Z,11.77
2022-08-26T17:52:37.450Z,6.60
2022-08-26T17:55:06.564Z,11.48
2022-08-26T17:57:33.410Z,7.65
2022-08-26T18:00:11.225Z,10.25
2022-08-26T18:02:39.235Z,12.13
2022-08-26T18:05:07.002Z,9.48
2022-08-26T18:07:43.533Z,8.73
2022-08-26T18:10:13.523Z,13.05
2022-08-26T18:12:41.476Z,10.50
2022-08-26T18:15:09.707Z,10.85
2022-08-26T18:17:37.709Z,9.95
2022-08-26T18:20:05.648Z,16.42
2022-08-26T18:22:32.397Z,12.40
2022-08-26T18:24:59.326Z,13.38
2022-08-26T18:27:26.543Z,15.05
2022-08-26T18:29:53.327Z,16.58
2022-08-26T18:32:20.081Z,12.38
2022-08-26T18:34:46.994Z,13.35
2022-08-26T18:39:45.670Z,8.90
2022-08-26T18:42:12.946Z,13.27
2022-08-26T18:44:39.745Z,13.75
2022-08-26T18:47:07.422Z,13.90
2022-08-26T18:49:35.047Z,17.48
2022-08-26T18:52:01.969Z,13.20
2022-08-26T18:54:29.988Z,10.10
2022-08-26T18:56:56.875Z,11.88
2022-08-26T18:59:28.430Z,11.98
2022-08-26T19:01:57.778Z,11.20
2022-08-26T19:04:24.858Z,14.57
2022-08-26T19:06:52.823Z,13.77
2022-08-26T19:09:20.940Z,16.55
2022-08-26T19:11:49.874Z,17.27
2022-08-26T19:14:17.732Z,14.65
2022-08-26T19:16:46.225Z,13.18
2022-08-26T19:19:14.726Z,15.82
2022-08-26T19:21:41.711Z,15.30
2022-08-26T19:24:17.233Z,22.48
2022-08-26T19:26:46.757Z,13.13
2022-08-26T19:29:14.074Z,13.35
2022-08-26T19:31:42.380Z,13.43
2022-08-26T19:34:10.990Z,11.23
2022-08-26T19:36:38.857Z,16.10
2022-08-26T19:39:09.952Z,18.42
2022-08-26T19:41:38.440Z,18.38
2022-08-26T19:44:08.903Z,18.52
2022-08-26T19:46:36.430Z,11.82
2022-08-26T19:49:03.773Z,11.90
2022-08-26T19:51:34.400Z,15.05
2022-08-26T19:54:02.342Z,14.25
2022-08-26T19:56:29.370Z,14.00
2022-08-26T19:58:56.860Z,15.93
2022-08-26T20:01:24.195Z,13.27
2022-08-26T20:03:51.096Z,13.52
2022-08-26T20:06:18.438Z,12.20
2022-08-26T20:08:46.380Z,16.10
2022-08-26T20:11:16.111Z,16.58
2022-08-26T20:13:44.015Z,11.77
2022-08-26T20:16:12.082Z,15.90
2022-08-26T20:18:59.507Z,12.45
2022-08-26T20:21:27.496Z,12.95
2022-08-26T20:24:03.437Z,17.38
2022-08-26T20:26:36.645Z,16.60
2022-08-26T20:29:04.985Z,16.35
2022-08-26T20:31:32.117Z,16.73
2022-08-26T20:33:59.104Z,14.93
2022-08-26T20:36:27.858Z,16.10
2022-08-26T20:38:55.711Z,15.65
2022-08-26T20:41:25.685Z,10.13
2022-08-26T20:43:53.931Z,12.75
2022-08-26T20:46:24.725Z,13.90
2022-08-26T20:48:52.908Z,13.52
2022-08-26T20:51:20.180Z,11.90
2022-08-26T20:53:47.445Z,11.77
2022-08-26T20:56:21.850Z,15.10
2022-08-26T20:58:48.668Z,12.52
2022-08-26T21:01:21.498Z,17.38
2022-08-26T21:03:50.968Z,15.63
2022-08-26T21:06:17.916Z,14.23
2022-08-26T21:08:45.231Z,13.20
2022-08-26T21:11:12.456Z,15.65
2022-08-26T21:14:01.520Z,11.60
2022-08-26T21:16:27.258Z,13.90
2022-08-26T21:18:54.264Z,18.25
2022-08-26T21:21:25.034Z,13.52
2022-08-26T21:23:52.199Z,12.40
2022-08-26T21:26:19.779Z,13.55
2022-08-26T21:28:47.179Z,13.48
2022-08-26T21:31:17.430Z,17.25
2022-08-26T21:33:44.759Z,13.63
2022-08-26T21:36:12.813Z,8.95
2022-08-26T21:38:40.598Z,13.00
2022-08-26T21:41:09.237Z,10.15
2022-08-26T21:43:36.731Z,9.43
2022-08-26T21:46:14.429Z,10.75
2022-08-26T21:48:51.218Z,17.02
2022-08-26T21:51:20.211Z,13.82
2022-08-26T21:53:47.467Z,17.05
2022-08-26T21:56:18.100Z,12.55
2022-08-26T21:58:45.637Z,14.43
2022-08-26T22:01:16.149Z,14.75
2022-08-26T22:03:46.787Z,13.07
2022-08-26T22:06:16.171Z,12.93
2022-08-26T22:08:43.287Z,10.20
2022-08-26T22:11:10.557Z,10.60
2022-08-26T22:13:39.036Z,11.00
2022-08-26T22:16:06.956Z,13.50
2022-08-26T22:18:34.886Z,18.35
2022-08-26T22:21:05.348Z,18.30
2022-08-26T22:23:33.005Z,23.30
2022-08-26T22:26:00.651Z,14.80
2022-08-26T22:28:28.354Z,16.42
2022-08-26T22:30:55.780Z,18.48
2022-08-26T22:33:23.433Z,14.65
2022-08-26T22:35:52.034Z,16.58
2022-08-26T22:38:20.465Z,15.60
2022-08-26T22:40:50.562Z,13.02
2022-08-26T22:43:18.897Z,17.23
2022-08-26T22:45:48.603Z,17.52
2022-08-26T22:48:18.190Z,17.50
2022-08-26T22:50:46.517Z,11.48
2022-08-26T22:53:14.557Z,14.40
2022-08-26T22:55:41.747Z,13.38
2022-08-26T22:58:09.524Z,18.65
2022-08-26T23:00:36.696Z,19.60
2022-08-26T23:03:04.654Z,11.98
2022-08-26T23:05:32.424Z,20.23
2022-08-26T23:07:59.343Z,16.65
2022-08-26T23:10:26.319Z,19.95
2022-08-26T23:12:53.750Z,19.80
2022-08-26T23:15:21.748Z,15.35
2022-08-26T23:17:52.321Z,14.75
2022-08-26T23:20:26.346Z,16.52
2022-08-26T23:22:53.651Z,14.70
2022-08-26T23:25:20.951Z,12.55
2022-08-26T23:27:48.992Z,17.75
2022-08-26T23:30:21.818Z,13.95
2022-08-26T23:32:49.363Z,9.27
2022-08-26T23:35:21.568Z,13.63
2022-08-26T23:37:52.994Z,13.55
2022-08-26T23:40:35.264Z,13.45
2022-08-26T23:43:04.826Z,15.90
2022-08-26T23:45:32.175Z,12.05
2022-08-26T23:47:59.391Z,13.95
2022-08-26T23:50:49.449Z,12.25
2022-08-26T23:53:20.427Z,16.63
2022-08-26T23:55:50.344Z,13.13
2022-08-26T23:58:19.161Z,9.23
